Time;durP1;ratioP1;P1;durP2;ratioP2;P2;SDS_P1;SDS_P2;PMS_P1;PMS_P2;Temp;Humidity;BMP_temperature;BMP_pressure;BME280_temperature;BME280_humidity;BME280_pressure;Samples;Min_cycle;Max_cycle;Signal;HPM_P1;HPM_P2
2021/01/23 00:01:14;;;;;;;34.30;17.58;;;2.60;92.00;;;;;;4992895;28;20072;-52
2021/01/23 00:03:39;;;;;;;32.33;17.02;;;2.50;92.00;;;;;;4992332;28;20114;-53
2021/01/23 00:06:05;;;;;;;32.17;17.25;;;2.50;92.00;;;;;;4982217;28;20070;-54
2021/01/23 00:08:31;;;;;;;33.10;17.90;;;2.60;92.00;;;;;;4992817;28;20055;-52
2021/01/23 00:10:57;;;;;;;38.33;17.85;;;3.20;92.00;;;;;;4992596;28;20518;-53
2021/01/23 00:13:22;;;;;;;28.85;17.58;;;2.60;91.90;;;;;;4994075;28;20072;-53
2021/01/23 00:15:48;;;;;;;34.45;17.38;;;2.60;91.90;;;;;;4987039;28;20038;-53
2021/01/23 00:18:14;;;;;;;32.60;17.48;;;2.60;91.90;;;;;;4992074;28;20425;-56
2021/01/23 00:20:39;;;;;;;28.10;17.13;;;2.60;91.80;;;;;;4993311;28;20055;-53
2021/01/23 00:23:05;;;;;;;30.50;17.92;;;2.60;91.90;;;;;;4992096;28;20038;-54
2021/01/23 00:25:30;;;;;;;30.33;18.05;;;2.60;92.00;;;;;;4991536;28;20089;-51
2021/01/23 00:27:56;;;;;;;29.90;17.30;;;2.50;91.90;;;;;;4991800;28;20454;-55
2021/01/23 00:30:22;;;;;;;32.92;18.30;;;2.50;91.90;;;;;;4992108;28;20057;-54
2021/01/23 00:32:47;;;;;;;30.35;16.85;;;2.50;91.90;;;;;;4992176;28;20406;-52
2021/01/23 00:35:14;;;;;;;32.58;16.75;;;2.50;92.00;;;;;;4973118;28;20050;-54
2021/01/23 00:37:41;;;;;;;29.90;17.67;;;2.50;92.00;;;;;;4991829;28;20387;-54
2021/01/23 00:40:07;;;;;;;33.60;17.33;;;2.60;91.90;;;;;;4990893;28;20035;-55
2021/01/23 00:42:33;;;;;;;31.65;18.42;;;2.50;91.90;;;;;;4991929;28;20045;-53
2021/01/23 00:44:59;;;;;;;29.70;17.35;;;2.60;91.90;;;;;;4980979;28;20054;-53
2021/01/23 00:47:24;;;;;;;37.38;17.77;;;2.50;91.80;;;;;;4991332;28;20487;-53
2021/01/23 00:49:50;;;;;;;34.03;18.83;;;2.50;91.90;;;;;;4991725;28;20046;-50
2021/01/23 00:52:16;;;;;;;28.23;18.45;;;2.50;91.90;;;;;;4991865;28;20116;-52
2021/01/23 00:54:41;;;;;;;37.47;18.75;;;2.50;91.90;;;;;;4980792;28;20043;-53
2021/01/23 00:57:07;;;;;;;33.47;18.35;;;2.50;91.90;;;;;;4990040;28;20046;-50
2021/01/23 00:59:33;;;;;;;36.55;19.17;;;2.50;91.90;;;;;;4991783;28;20080;-52
2021/01/23 01:01:58;;;;;;;30.15;17.77;;;2.50;91.90;;;;;;4991349;28;20081;-52
2021/01/23 01:04:24;;;;;;;34.97;19.52;;;2.50;91.90;;;;;;4991736;28;20046;-50
2021/01/23 01:06:49;;;;;;;29.67;18.45;;;2.50;91.80;;;;;;4991164;28;20042;-51
2021/01/23 01:09:15;;;;;;;32.42;19.23;;;2.50;91.90;;;;;;4990946;28;20126;-53
2021/01/23 01:11:40;;;;;;;31.65;18.75;;;2.40;91.90;;;;;;4991666;28;20080;-51
2021/01/23 01:14:06;;;;;;;37.88;19.40;;;2.40;92.00;;;;;;4985716;28;20031;-51
2021/01/23 01:16:32;;;;;;;42.30;20.77;;;2.40;92.00;;;;;;4990531;28;20073;-51
2021/01/23 01:18:57;;;;;;;34.97;19.65;;;2.40;92.00;;;;;;4990864;28;20747;-55
2021/01/23 01:21:23;;;;;;;36.60;19.55;;;2.40;92.10;;;;;;4991726;28;20073;-53
2021/01/23 01:23:48;;;;;;;35.47;19.60;;;2.40;92.00;;;;;;4988546;28;20047;-53
2021/01/23 01:26:14;;;;;;;32.75;19.42;;;2.40;92.00;;;;;;4976790;28;20129;-51
2021/01/23 01:28:40;;;;;;;37.95;19.90;;;2.40;92.10;;;;;;4984209;28;20042;-54
2021/01/23 01:31:05;;;;;;;38.28;20.52;;;2.40;92.20;;;;;;4990807;28;20104;-55
2021/01/23 01:33:31;;;;;;;38.35;20.52;;;2.30;92.10;;;;;;4990341;28;20117;-53
2021/01/23 01:35:57;;;;;;;41.15;21.55;;;2.30;92.20;;;;;;4983361;28;20041;-51
2021/01/23 01:38:23;;;;;;;39.35;19.65;;;2.20;92.30;;;;;;4990803;28;20093;-50
2021/01/23 01:40:51;;;;;;;33.90;19.67;;;2.20;92.30;;;;;;4991851;28;20042;-52
2021/01/23 01:43:17;;;;;;;41.05;20.52;;;2.20;92.40;;;;;;4990673;28;20053;-50
2021/01/23 01:45:42;;;;;;;38.85;20.75;;;2.20;92.40;;;;;;4973298;28;20046;-51
2021/01/23 01:48:11;;;;;;;38.65;21.10;;;2.30;92.40;;;;;;4989158;28;20069;-53
2021/01/23 01:50:37;;;;;;;46.05;21.38;;;2.20;92.30;;;;;;4984517;28;20034;-54
2021/01/23 01:53:03;;;;;;;37.25;19.98;;;2.30;92.30;;;;;;4990714;28;20085;-51
2021/01/23 01:55:34;;;;;;;39.30;20.95;;;2.20;92.40;;;;;;4986632;28;20038;-50
2021/01/23 01:58:00;;;;;;;37.85;20.48;;;2.20;92.30;;;;;;4990886;28;20194;-50
2021/01/23 02:00:26;;;;;;;36.35;21.15;;;2.20;92.30;;;;;;4990918;28;20046;-52
2021/01/23 02:03:00;;;;;;;39.33;20.50;;;2.30;92.30;;;;;;4989632;28;20097;-50
2021/01/23 02:05:36;;;;;;;41.42;21.33;;;2.20;92.30;;;;;;4990698;28;20503;-51
2021/01/23 02:08:16;;;;;;;39.83;20.65;;;2.30;92.20;;;;;;4989832;28;20042;-51
2021/01/23 02:11:01;;;;;;;34.22;20.02;;;2.30;92.20;;;;;;4991353;28;20046;-51
2021/01/23 02:13:29;;;;;;;37.38;20.30;;;2.30;92.20;;;;;;4981239;28;20414;-54
2021/01/23 02:16:06;;;;;;;36.13;19.80;;;2.20;92.20;;;;;;4990443;28;20039;-54
2021/01/23 02:18:53;;;;;;;38.40;20.45;;;2.20;92.30;;;;;;4980879;28;20042;-51
2021/01/23 02:21:49;;;;;;;35.05;20.52;;;2.20;92.20;;;;;;4990417;28;20045;-54
2021/01/23 02:24:22;;;;;;;43.30;19.98;;;2.20;92.20;;;;;;4987561;28;20073;-55
2021/01/23 02:27:07;;;;;;;34.38;19.85;;;2.20;92.10;;;;;;4989563;28;20034;-51
2021/01/23 02:30:01;;;;;;;37.30;18.92;;;2.20;92.10;;;;;;4990423;28;20051;-56
2021/01/23 02:32:30;;;;;;;37.90;19.50;;;2.20;92.20;;;;;;4976984;28;20039;-50
2021/01/23 02:34:58;;;;;;;42.72;20.95;;;2.10;92.20;;;;;;4991023;28;20109;-53
2021/01/23 02:37:24;;;;;;;35.65;20.42;;;2.10;92.20;;;;;;4990656;28;20545;-50
2021/01/23 02:39:51;;;;;;;39.03;19.90;;;2.10;92.30;;;;;;4973272;28;20104;-51
2021/01/23 02:42:17;;;;;;;37.55;19.50;;;2.10;92.20;;;;;;4989354;28;20391;-54
2021/01/23 02:44:43;;;;;;;38.85;19.83;;;2.10;92.20;;;;;;4989592;28;20418;-57
2021/01/23 02:47:09;;;;;;;37.58;20.73;;;2.10;92.30;;;;;;4990590;28;20074;-52
2021/01/23 02:49:34;;;;;;;36.13;19.85;;;2.10;92.20;;;;;;4990896;28;20046;-53
2021/01/23 02:52:11;;;;;;;33.45;18.52;;;2.10;92.20;;;;;;4988883;28;20582;-53
2021/01/23 02:54:53;;;;;;;36.33;19.02;;;2.10;92.20;;;;;;4967726;28;20426;-53
2021/01/23 02:57:20;;;;;;;30.60;18.92;;;2.00;92.20;;;;;;4977983;28;20048;-56
2021/01/23 02:59:49;;;;;;;35.60;19.27;;;2.00;92.30;;;;;;4991295;28;20038;-56
2021/01/23 03:02:19;;;;;;;30.30;18.77;;;2.00;92.40;;;;;;4982501;28;20448;-54
2021/01/23 03:04:46;;;;;;;31.30;18.52;;;2.00;92.40;;;;;;4994173;28;20460;-56
2021/01/23 03:07:16;;;;;;;30.55;19.10;;;2.00;92.40;;;;;;4993107;28;20068;-56
2021/01/23 03:09:42;;;;;;;33.05;18.27;;;2.00;92.30;;;;;;4993970;28;20130;-55
2021/01/23 03:12:09;;;;;;;30.65;18.38;;;2.00;92.30;;;;;;4993757;28;20070;-57
2021/01/23 03:14:35;;;;;;;35.58;19.15;;;2.00;92.20;;;;;;4993191;28;20030;-54
2021/01/23 03:17:01;;;;;;;34.15;18.02;;;2.00;92.30;;;;;;4976281;28;20073;-54
2021/01/23 03:19:26;;;;;;;36.20;19.35;;;2.00;92.20;;;;;;4988836;28;20070;-53
2021/01/23 03:21:52;;;;;;;34.15;17.85;;;2.10;92.10;;;;;;4989803;28;20061;-54
2021/01/23 03:24:21;;;;;;;30.65;17.50;;;2.10;92.00;;;;;;4992375;28;20418;-54
2021/01/23 03:26:48;;;;;;;29.92;18.30;;;2.10;91.80;;;;;;4993215;28;20042;-53
2021/01/23 03:29:15;;;;;;;32.08;17.63;;;2.10;91.90;;;;;;4992468;28;20066;-51
2021/01/23 03:31:40;;;;;;;33.80;17.77;;;2.20;91.80;;;;;;4986251;28;20069;-51
2021/01/23 03:34:06;;;;;;;33.85;17.38;;;2.20;91.70;;;;;;4993493;28;20491;-53
2021/01/23 03:36:33;;;;;;;30.25;17.38;;;2.20;91.80;;;;;;4991778;28;20046;-54
2021/01/23 03:38:59;;;;;;;33.30;18.10;;;2.20;92.00;;;;;;4991943;28;20043;-50
2021/01/23 03:41:25;;;;;;;30.73;17.10;;;2.10;91.70;;;;;;4993210;28;20375;-53
2021/01/23 03:43:51;;;;;;;28.77;17.52;;;2.10;91.70;;;;;;4992698;28;20037;-53
2021/01/23 03:46:17;;;;;;;31.98;18.20;;;2.10;91.70;;;;;;4992143;28;20042;-55
2021/01/23 03:48:42;;;;;;;30.33;16.75;;;2.10;91.60;;;;;;4992501;28;20077;-54
2021/01/23 03:51:08;;;;;;;30.27;17.05;;;2.10;91.50;;;;;;4986405;28;20042;-50
2021/01/23 03:53:34;;;;;;;33.35;18.40;;;2.10;91.60;;;;;;4993124;28;20034;-51
2021/01/23 03:56:00;;;;;;;30.88;17.77;;;2.00;91.70;;;;;;4992824;28;20043;-52
2021/01/23 03:58:26;;;;;;;28.52;16.10;;;1.90;91.80;;;;;;4993408;28;20120;-51
2021/01/23 04:00:52;;;;;;;32.28;18.02;;;2.00;91.80;;;;;;4991654;28;20490;-51
2021/01/23 04:03:18;;;;;;;31.85;17.20;;;2.00;91.90;;;;;;4994028;28;20116;-55
2021/01/23 04:05:43;;;;;;;26.60;16.38;;;2.00;92.00;;;;;;4987179;28;20502;-56
2021/01/23 04:08:09;;;;;;;28.40;15.82;;;2.00;92.00;;;;;;4989522;28;20478;-56
2021/01/23 04:10:36;;;;;;;32.20;17.20;;;2.10;92.00;;;;;;4988775;28;20151;-55
2021/01/23 04:13:02;;;;;;;27.15;15.15;;;2.10;92.00;;;;;;4992817;28;20077;-55
2021/01/23 04:15:28;;;;;;;28.40;16.17;;;2.20;91.90;;;;;;4991196;28;20065;-56
2021/01/23 04:17:53;;;;;;;33.15;15.88;;;2.20;91.90;;;;;;4991838;28;20105;-56
2021/01/23 04:20:19;;;;;;;26.25;16.90;;;2.20;91.70;;;;;;4985222;28;20038;-56
2021/01/23 04:22:46;;;;;;;27.33;16.95;;;2.20;91.90;;;;;;4992642;28;20109;-55
2021/01/23 04:25:12;;;;;;;26.67;15.65;;;2.10;92.10;;;;;;4992395;28;20108;-56
2021/01/23 04:27:37;;;;;;;25.48;16.08;;;2.20;92.20;;;;;;4990600;28;20038;-56
2021/01/23 04:30:06;;;;;;;33.40;17.15;;;2.20;92.10;;;;;;4992496;28;20053;-54
2021/01/23 04:32:31;;;;;;;27.83;16.73;;;2.30;92.10;;;;;;4988483;28;20117;-55
2021/01/23 04:34:57;;;;;;;30.77;16.35;;;2.30;92.10;;;;;;4991176;28;20081;-56
2021/01/23 04:37:22;;;;;;;31.38;16.98;;;2.30;92.00;;;;;;4991705;28;20106;-56
2021/01/23 04:39:49;;;;;;;30.27;16.80;;;2.30;92.10;;;;;;4991743;28;20506;-56
2021/01/23 04:42:14;;;;;;;27.27;15.73;;;2.30;92.20;;;;;;4986845;28;20054;-55
2021/01/23 04:44:40;;;;;;;27.52;16.50;;;2.40;92.10;;;;;;4991978;28;20042;-56
2021/01/23 04:47:06;;;;;;;29.25;16.23;;;2.40;91.90;;;;;;4990994;28;20387;-58
2021/01/23 04:49:33;;;;;;;26.63;16.85;;;2.40;91.90;;;;;;4991959;28;20562;-56
2021/01/23 04:52:02;;;;;;;25.55;17.38;;;2.50;92.00;;;;;;4991493;28;20042;-56
2021/01/23 04:54:29;;;;;;;29.83;17.08;;;2.40;92.00;;;;;;4992334;28;20070;-56
2021/01/23 04:56:56;;;;;;;32.88;17.13;;;2.40;92.10;;;;;;4979535;28;20557;-56
2021/01/23 04:59:21;;;;;;;28.52;16.35;;;2.40;92.30;;;;;;4991750;28;20249;-56
2021/01/23 05:02:20;;;;;;;27.48;17.95;;;2.50;92.10;;;;;;4990092;28;20044;-55
2021/01/23 05:04:56;;;;;;;26.52;16.50;;;2.40;92.20;;;;;;4991274;28;20513;-55
2021/01/23 05:07:31;;;;;;;28.83;17.65;;;2.50;92.20;;;;;;4963546;28;20066;-57
2021/01/23 05:10:10;;;;;;;32.28;17.90;;;2.40;92.30;;;;;;4990192;28;20093;-57
2021/01/23 05:12:42;;;;;;;28.33;17.50;;;2.50;92.40;;;;;;4976891;28;20110;-57
2021/01/23 05:15:25;;;;;;;28.23;17.85;;;2.40;92.30;;;;;;4989326;28;20050;-57
2021/01/23 05:17:53;;;;;;;26.02;17.08;;;2.50;92.60;;;;;;4990952;28;20050;-57
2021/01/23 05:20:38;;;;;;;27.80;16.90;;;2.50;92.60;;;;;;4991120;28;20046;-56
2021/01/23 05:23:09;;;;;;;33.95;17.73;;;2.50;92.50;;;;;;4991309;28;20572;-56
2021/01/23 05:25:36;;;;;;;32.90;18.52;;;2.50;92.60;;;;;;4990415;28;20038;-56
2021/01/23 05:28:02;;;;;;;34.63;19.52;;;2.50;92.70;;;;;;4989739;28;20053;-56
2021/01/23 05:30:50;;;;;;;38.80;19.75;;;2.50;92.70;;;;;;4989524;28;20126;-56
2021/01/23 05:33:21;;;;;;;30.88;17.75;;;2.50;92.70;;;;;;4990116;28;20047;-54
2021/01/23 05:36:07;;;;;;;35.22;18.75;;;2.50;92.80;;;;;;4990918;28;20038;-56
2021/01/23 05:38:34;;;;;;;34.47;18.08;;;2.50;92.80;;;;;;4989607;28;20038;-55
2021/01/23 05:41:08;;;;;;;28.15;18.35;;;2.60;92.90;;;;;;4991174;28;20555;-54
2021/01/23 05:43:39;;;;;;;29.83;17.85;;;2.60;93.00;;;;;;4990367;28;20498;-57
2021/01/23 05:46:06;;;;;;;30.05;18.48;;;2.60;93.00;;;;;;4972870;28;20049;-56
2021/01/23 05:48:32;;;;;;;35.08;19.30;;;2.60;93.00;;;;;;4990859;28;20050;-56
2021/01/23 05:50:58;;;;;;;29.92;17.30;;;2.60;93.00;;;;;;4991064;28;20450;-57
2021/01/23 05:53:24;;;;;;;28.95;18.17;;;2.70;93.10;;;;;;4991046;28;20050;-57
2021/01/23 05:55:50;;;;;;;30.70;18.23;;;2.70;93.10;;;;;;4989810;28;20085;-57
2021/01/23 05:58:17;;;;;;;32.10;18.08;;;2.70;93.10;;;;;;4983644;28;20105;-57
2021/01/23 06:00:43;;;;;;;28.52;17.63;;;2.70;93.10;;;;;;4988200;28;20042;-56
2021/01/23 06:03:10;;;;;;;29.65;18.00;;;2.80;93.20;;;;;;4991460;28;20046;-57
2021/01/23 06:05:36;;;;;;;29.27;18.02;;;2.80;93.20;;;;;;4988750;28;20050;-56
2021/01/23 06:08:02;;;;;;;33.38;16.92;;;2.80;93.20;;;;;;4980202;28;20042;-56
2021/01/23 06:10:37;;;;;;;30.52;17.60;;;2.90;93.20;;;;;;4990554;28;20506;-56
2021/01/23 06:13:03;;;;;;;29.38;17.67;;;2.90;93.10;;;;;;4989704;28;20061;-56
2021/01/23 06:15:32;;;;;;;35.08;17.92;;;2.90;93.10;;;;;;4989786;28;20035;-56
2021/01/23 06:18:26;;;;;;;33.45;18.00;;;2.90;93.20;;;;;;4989466;28;20046;-57
2021/01/23 06:20:53;;;;;;;29.13;17.00;;;2.90;93.20;;;;;;4978707;28;20042;-57
2021/01/23 06:23:21;;;;;;;27.30;17.80;;;3.00;93.20;;;;;;4991151;28;20042;-56
2021/01/23 06:25:50;;;;;;;30.92;18.40;;;3.00;93.10;;;;;;4986238;28;20117;-56
2021/01/23 06:28:38;;;;;;;29.38;17.58;;;3.00;93.10;;;;;;4991304;28;20047;-56
2021/01/23 06:31:22;;;;;;;33.42;18.33;;;3.00;93.00;;;;;;4991055;28;20060;-57
2021/01/23 06:33:48;;;;;;;32.47;18.92;;;2.90;93.20;;;;;;4990846;28;20035;-57
2021/01/23 06:36:22;;;;;;;29.90;18.58;;;2.90;93.30;;;;;;4987872;28;20042;-56
2021/01/23 06:39:12;;;;;;;29.88;17.70;;;3.00;93.00;;;;;;4991869;28;20034;-56
2021/01/23 06:41:38;;;;;;;26.35;17.73;;;3.10;93.10;;;;;;4994721;28;20117;-57
2021/01/23 06:44:07;;;;;;;28.05;17.75;;;3.20;93.20;;;;;;4987837;28;20073;-57
2021/01/23 06:46:44;;;;;;;27.17;17.35;;;3.10;93.30;;;;;;4994055;28;20085;-56
2021/01/23 06:49:14;;;;;;;30.95;18.00;;;3.20;93.00;;;;;;4994064;28;20438;-56
2021/01/23 06:51:43;;;;;;;23.88;16.55;;;3.10;93.00;;;;;;4991758;28;20042;-56
2021/01/23 06:54:17;;;;;;;25.63;16.48;;;3.10;93.00;;;;;;4988670;28;20134;-56
2021/01/23 06:56:43;;;;;;;27.20;17.63;;;3.10;92.90;;;;;;4989402;28;20042;-56
2021/01/23 06:59:30;;;;;;;29.60;17.30;;;3.10;92.90;;;;;;4993889;28;20568;-56
2021/01/23 07:02:20;;;;;;;29.25;16.15;;;3.00;93.00;;;;;;4993977;28;20045;-56
2021/01/23 07:04:50;;;;;;;27.88;16.70;;;3.10;93.10;;;;;;4993307;28;20487;-56
2021/01/23 07:07:17;;;;;;;32.05;17.13;;;3.00;93.10;;;;;;4983118;28;20070;-56
2021/01/23 07:09:48;;;;;;;28.35;16.67;;;3.10;93.20;;;;;;4994956;28;20105;-56
2021/01/23 07:12:37;;;;;;;32.70;17.73;;;3.10;93.00;;;;;;4994887;28;20038;-56
2021/01/23 07:15:21;;;;;;;29.45;17.08;;;3.10;93.10;;;;;;4983075;28;20038;-57
2021/01/23 07:17:47;;;;;;;26.90;17.52;;;3.20;93.10;;;;;;4991492;28;20116;-57
2021/01/23 07:20:16;;;;;;;30.60;17.48;;;3.10;93.10;;;;;;4991333;28;20038;-56
2021/01/23 07:22:43;;;;;;;32.58;17.60;;;3.20;92.80;;;;;;4987615;28;20034;-57
2021/01/23 07:25:11;;;;;;;28.60;16.48;;;3.20;92.90;;;;;;4990388;28;20035;-58
2021/01/23 07:27:38;;;;;;;31.45;17.00;;;3.20;93.10;;;;;;4990696;28;20200;-57
2021/01/23 07:30:09;;;;;;;28.40;16.48;;;3.20;93.00;;;;;;4993628;28;20045;-57
2021/01/23 07:32:39;;;;;;;29.80;17.10;;;3.20;93.10;;;;;;4992739;28;20486;-57
2021/01/23 07:35:05;;;;;;;29.80;17.40;;;3.30;93.00;;;;;;4993021;28;21734;-57
2021/01/23 07:37:53;;;;;;;26.75;17.30;;;3.30;93.00;;;;;;4992915;28;20055;-57
2021/01/23 07:40:27;;;;;;;26.08;15.80;;;3.30;93.10;;;;;;4982613;28;20055;-57
2021/01/23 07:42:57;;;;;;;28.42;16.63;;;3.30;92.90;;;;;;4993415;28;20053;-57
2021/01/23 07:45:23;;;;;;;28.90;16.85;;;3.30;92.90;;;;;;4990575;28;20502;-57
2021/01/23 07:47:59;;;;;;;24.63;16.15;;;3.30;93.00;;;;;;4988777;28;20050;-56
2021/01/23 07:50:25;;;;;;;25.98;16.40;;;3.40;93.00;;;;;;4983300;28;20035;-57
2021/01/23 07:52:50;;;;;;;30.05;15.50;;;3.40;92.90;;;;;;4990384;28;20049;-57
2021/01/23 07:55:16;;;;;;;26.00;15.90;;;3.40;92.90;;;;;;4986381;28;20039;-57
2021/01/23 07:57:42;;;;;;;23.55;15.55;;;3.40;93.00;;;;;;4990994;28;20042;-57
2021/01/23 08:00:20;;;;;;;26.65;15.40;;;3.50;93.00;;;;;;4988384;28;20046;-56
2021/01/23 08:02:50;;;;;;;30.90;16.20;;;3.50;92.80;;;;;;4993417;28;20034;-56
2021/01/23 08:05:16;;;;;;;26.42;15.95;;;3.50;92.80;;;;;;4992156;28;20227;-57
2021/01/23 08:07:42;;;;;;;29.52;15.98;;;3.50;92.80;;;;;;4991282;28;20438;-57
2021/01/23 08:10:09;;;;;;;25.75;16.25;;;3.50;92.80;;;;;;4990284;28;20042;-57
2021/01/23 08:12:37;;;;;;;24.88;16.25;;;3.50;92.70;;;;;;4991962;28;20054;-57
2021/01/23 08:15:04;;;;;;;27.35;14.98;;;3.50;92.90;;;;;;4990777;28;20547;-57
2021/01/23 08:17:37;;;;;;;28.42;16.00;;;3.60;93.00;;;;;;4990605;28;20074;-57
2021/01/23 08:20:03;;;;;;;;;;;3.60;92.90;;;;;;4992121;28;20490;-57
2021/01/23 08:22:29;;;;;;;27.02;15.35;;;3.70;92.90;;;;;;4990220;28;19925;-57
2021/01/23 08:24:54;;;;;;;24.80;14.50;;;3.70;92.80;;;;;;4991315;28;20089;-57
2021/01/23 08:27:21;;;;;;;25.83;15.57;;;3.70;92.90;;;;;;4990161;28;20038;-57
2021/01/23 08:29:51;;;;;;;27.73;14.88;;;3.70;92.90;;;;;;4989781;28;20042;-58
2021/01/23 08:32:17;;;;;;;28.77;16.10;;;3.70;92.80;;;;;;4988936;28;20096;-57
2021/01/23 08:34:44;;;;;;;25.10;15.13;;;3.80;92.70;;;;;;4989536;28;20457;-56
2021/01/23 08:37:10;;;;;;;25.83;15.68;;;3.80;92.70;;;;;;4987756;28;20053;-57
2021/01/23 08:39:44;;;;;;;27.25;15.68;;;3.80;92.80;;;;;;4990056;28;20142;-57
2021/01/23 08:42:10;;;;;;;27.00;15.48;;;3.90;92.60;;;;;;4991413;28;20073;-57
2021/01/23 08:44:35;;;;;;;25.58;15.43;;;3.90;92.70;;;;;;4991779;28;20115;-57
2021/01/23 08:47:02;;;;;;;28.33;15.93;;;3.90;92.70;;;;;;4990440;28;20447;-57
2021/01/23 08:49:28;;;;;;;23.83;14.68;;;4.00;92.60;;;;;;4992091;28;20129;-57
2021/01/23 08:51:54;;;;;;;23.77;15.55;;;4.00;92.50;;;;;;4987993;28;20130;-58
2021/01/23 08:54:21;;;;;;;26.35;15.43;;;4.10;92.40;;;;;;4991318;28;20133;-57
2021/01/23 08:56:47;;;;;;;25.63;15.52;;;4.00;92.50;;;;;;4991586;28;20522;-58
2021/01/23 08:59:13;;;;;;;23.85;14.88;;;4.00;92.60;;;;;;4990820;28;20058;-57
2021/01/23 09:01:39;;;;;;;26.65;15.35;;;3.90;92.60;;;;;;4989157;28;20085;-57
2021/01/23 09:04:05;;;;;;;23.88;15.20;;;4.00;92.70;;;;;;4991024;28;20375;-57
2021/01/23 09:06:30;;;;;;;26.05;14.57;;;4.00;92.60;;;;;;4991046;28;20073;-58
2021/01/23 09:08:56;;;;;;;26.30;15.10;;;4.00;92.80;;;;;;4989083;28;20034;-57
2021/01/23 09:11:22;;;;;;;24.90;15.07;;;4.00;92.80;;;;;;4991409;28;20041;-57
2021/01/23 09:13:47;;;;;;;23.23;14.35;;;4.10;92.70;;;;;;4991047;28;20402;-57
2021/01/23 09:16:13;;;;;;;25.05;14.38;;;4.00;92.80;;;;;;4989214;28;20454;-58
2021/01/23 09:18:39;;;;;;;25.73;15.25;;;4.10;92.70;;;;;;4988642;28;20447;-58
2021/01/23 09:21:05;;;;;;;24.23;14.25;;;4.20;92.70;;;;;;4987393;28;20410;-56
2021/01/23 09:23:30;;;;;;;24.35;15.52;;;4.10;92.70;;;;;;4991345;28;20470;-57
2021/01/23 09:25:56;;;;;;;24.13;14.02;;;4.20;92.40;;;;;;4990030;28;20038;-58
2021/01/23 09:28:25;;;;;;;26.63;14.50;;;4.30;92.50;;;;;;4987740;28;20085;-58
2021/01/23 09:30:50;;;;;;;24.40;14.82;;;4.20;92.60;;;;;;4984929;28;20093;-57
2021/01/23 09:33:16;;;;;;;24.50;14.77;;;4.30;92.40;;;;;;4988178;28;20038;-57
2021/01/23 09:35:42;;;;;;;23.67;14.35;;;4.40;92.40;;;;;;4989563;28;20069;-57
2021/01/23 09:38:07;;;;;;;22.35;14.23;;;4.30;92.70;;;;;;4989179;28;20046;-57
2021/01/23 09:40:33;;;;;;;26.13;14.13;;;4.40;92.60;;;;;;4990018;28;20042;-57
2021/01/23 09:42:59;;;;;;;24.75;14.52;;;4.40;92.60;;;;;;4980603;28;20043;-57
2021/01/23 09:45:24;;;;;;;20.92;13.18;;;4.40;92.60;;;;;;4987961;28;20050;-57
2021/01/23 09:47:50;;;;;;;20.05;13.60;;;4.50;92.50;;;;;;4988959;28;20042;-57
2021/01/23 09:50:21;;;;;;;20.13;13.80;;;4.50;92.40;;;;;;4986940;28;20051;-58
2021/01/23 09:52:47;;;;;;;24.17;13.75;;;4.60;92.50;;;;;;4987728;28;20072;-58
2021/01/23 09:55:13;;;;;;;21.15;13.50;;;4.50;92.30;;;;;;4988407;28;20054;-58
2021/01/23 09:57:39;;;;;;;22.35;13.73;;;4.60;92.30;;;;;;4986910;28;20580;-58
2021/01/23 10:00:06;;;;;;;26.35;14.27;;;4.60;92.30;;;;;;4988142;28;20035;-56
2021/01/23 10:02:36;;;;;;;23.45;13.95;;;4.60;92.20;;;;;;4987269;28;20050;-57
2021/01/23 10:05:03;;;;;;;22.52;13.35;;;4.70;92.30;;;;;;4989815;28;20085;-57
2021/01/23 10:07:29;;;;;;;20.65;13.48;;;4.70;92.30;;;;;;4987223;28;20462;-57
2021/01/23 10:09:55;;;;;;;27.20;13.50;;;4.70;92.10;;;;;;4985001;28;20053;-57
2021/01/23 10:12:21;;;;;;;22.52;13.80;;;4.80;92.00;;;;;;4977544;28;20104;-57
2021/01/23 10:14:46;;;;;;;20.80;13.38;;;4.70;92.10;;;;;;4982891;28;20469;-56
2021/01/23 10:17:14;;;;;;;21.00;13.15;;;4.80;92.00;;;;;;4994027;28;20050;-58
2021/01/23 10:19:40;;;;;;;20.33;13.45;;;4.80;92.10;;;;;;4994574;28;20042;-56
2021/01/23 10:22:05;;;;;;;20.38;12.65;;;4.90;92.10;;;;;;4994348;28;20052;-57
2021/01/23 10:24:31;;;;;;;19.42;12.70;;;4.90;92.10;;;;;;4994611;28;20129;-56
2021/01/23 10:26:57;;;;;;;21.15;12.90;;;5.00;92.00;;;;;;4993018;28;20042;-57
2021/01/23 10:29:23;;;;;;;21.40;13.55;;;5.10;91.60;;;;;;4994210;28;20130;-56
2021/01/23 10:31:48;;;;;;;20.88;12.80;;;5.10;91.60;;;;;;4992593;28;20039;-57
2021/01/23 10:34:14;;;;;;;18.92;12.60;;;5.20;91.60;;;;;;4990463;28;20407;-57
2021/01/23 10:36:40;;;;;;;20.27;12.60;;;5.20;91.50;;;;;;4975844;28;20042;-57
2021/01/23 10:39:06;;;;;;;19.00;11.45;;;5.20;91.30;;;;;;4994298;28;20057;-57
2021/01/23 10:41:32;;;;;;;20.67;12.07;;;5.20;91.30;;;;;;4993668;28;20038;-57
2021/01/23 10:43:58;;;;;;;17.77;11.40;;;5.20;91.20;;;;;;4989747;28;20532;-57
2021/01/23 10:46:23;;;;;;;19.88;11.82;;;5.20;91.00;;;;;;4992122;28;20042;-57
2021/01/23 10:48:49;;;;;;;15.20;10.88;;;5.30;90.90;;;;;;4993826;28;20046;-57
2021/01/23 10:51:15;;;;;;;19.15;11.63;;;5.30;91.10;;;;;;4992813;28;20791;-57
2021/01/23 10:53:41;;;;;;;17.58;10.95;;;5.30;91.10;;;;;;4992640;28;20081;-57
2021/01/23 10:56:06;;;;;;;16.52;10.70;;;5.30;91.00;;;;;;4993465;28;20042;-57
2021/01/23 10:58:35;;;;;;;16.95;10.98;;;5.40;91.00;;;;;;4993802;28;20046;-57
2021/01/23 11:01:00;;;;;;;18.83;10.63;;;5.40;91.00;;;;;;4992287;28;20056;-57
2021/01/23 11:03:28;;;;;;;19.52;11.70;;;5.50;91.00;;;;;;4988420;28;20105;-57
2021/01/23 11:05:55;;;;;;;19.23;11.60;;;5.50;91.00;;;;;;4991891;28;20089;-57
2021/01/23 11:08:22;;;;;;;16.33;10.68;;;5.60;90.90;;;;;;4992942;28;20042;-58
2021/01/23 11:10:47;;;;;;;17.45;11.48;;;5.60;90.90;;;;;;4993405;28;20066;-58
2021/01/23 11:13:13;;;;;;;21.08;11.65;;;5.50;90.80;;;;;;4992705;28;20088;-58
2021/01/23 11:15:39;;;;;;;15.68;9.93;;;5.60;90.80;;;;;;4991158;28;20499;-58
2021/01/23 11:18:05;;;;;;;16.23;10.40;;;5.60;90.70;;;;;;4992210;28;20034;-57
2021/01/23 11:20:31;;;;;;;16.88;10.52;;;5.60;90.80;;;;;;4993988;28;20089;-57
2021/01/23 11:22:57;;;;;;;14.23;9.32;;;5.60;90.60;;;;;;4991363;28;20070;-57
2021/01/23 11:25:23;;;;;;;16.30;9.18;;;5.70;91.30;;;;;;4992022;28;20057;-57
2021/01/23 11:27:49;;;;;;;14.40;9.35;;;5.70;89.60;;;;;;4990692;28;20054;-58
2021/01/23 11:30:16;;;;;;;14.27;8.90;;;5.70;90.40;;;;;;4988170;28;20121;-57
2021/01/23 11:32:42;;;;;;;13.50;8.52;;;5.70;90.20;;;;;;4992799;28;20089;-58
2021/01/23 11:35:08;;;;;;;12.98;8.38;;;5.70;89.80;;;;;;4975979;28;20042;-58
2021/01/23 11:37:34;;;;;;;16.88;8.18;;;5.70;88.90;;;;;;4976017;28;20077;-58
2021/01/23 11:40:00;;;;;;;10.63;8.25;;;5.70;89.50;;;;;;4993285;28;20054;-58
2021/01/23 11:42:26;;;;;;;11.88;8.30;;;5.70;89.50;;;;;;4992625;28;20041;-58
2021/01/23 11:44:52;;;;;;;14.43;8.23;;;5.70;89.50;;;;;;4992831;28;20125;-58
2021/01/23 11:47:18;;;;;;;11.95;7.90;;;5.70;88.80;;;;;;4991835;28;20233;-57
2021/01/23 11:49:43;;;;;;;11.60;8.05;;;5.70;87.80;;;;;;4991753;28;20042;-57
2021/01/23 11:52:09;;;;;;;15.50;9.00;;;5.70;88.50;;;;;;4988687;28;20038;-58
2021/01/23 11:54:34;;;;;;;17.50;9.07;;;5.70;89.00;;;;;;4992149;28;20046;-58
2021/01/23 11:57:00;;;;;;;14.35;9.57;;;5.70;88.80;;;;;;4991125;28;20128;-57
2021/01/23 11:59:26;;;;;;;14.77;8.77;;;5.70;88.80;;;;;;4991156;28;20042;-58
2021/01/23 12:01:51;;;;;;;15.60;9.52;;;5.70;88.80;;;;;;4991919;28;20042;-57
2021/01/23 12:04:19;;;;;;;12.95;8.60;;;5.70;88.80;;;;;;4973313;28;20097;-57
2021/01/23 12:06:46;;;;;;;14.02;8.88;;;5.80;87.70;;;;;;4990840;28;20089;-57
2021/01/23 12:09:12;;;;;;;12.07;7.45;;;5.70;88.00;;;;;;4990794;28;20042;-58
2021/01/23 12:11:37;;;;;;;12.57;7.68;;;5.60;85.60;;;;;;4991470;28;20466;-57
2021/01/23 12:14:03;;;;;;;11.43;7.35;;;5.70;86.50;;;;;;4988979;28;20422;-57
2021/01/23 12:16:29;;;;;;;16.15;7.63;;;5.70;87.40;;;;;;4972712;28;20433;-57
2021/01/23 12:18:54;;;;;;;9.45;6.63;;;5.70;86.70;;;;;;4989949;28;20038;-58
2021/01/23 12:21:23;;;;;;;10.52;6.60;;;5.70;86.70;;;;;;4988703;28;20410;-57
2021/01/23 12:23:49;;;;;;;10.35;5.68;;;5.80;86.40;;;;;;4991844;28;20044;-57
2021/01/23 12:26:15;;;;;;;9.05;6.03;;;5.80;85.40;;;;;;4989728;28;20085;-57
2021/01/23 12:28:40;;;;;;;12.43;6.75;;;5.90;84.40;;;;;;4991918;28;20469;-57
2021/01/23 12:31:06;;;;;;;9.98;6.07;;;5.80;85.10;;;;;;4991351;28;20046;-57
2021/01/23 12:33:32;;;;;;;11.50;6.20;;;5.80;84.70;;;;;;4991536;28;20038;-57
2021/01/23 12:35:57;;;;;;;10.98;6.72;;;5.80;85.20;;;;;;4990871;28;20104;-57
2021/01/23 12:38:23;;;;;;;10.18;6.50;;;5.80;85.10;;;;;;4990403;28;20128;-56
2021/01/23 12:40:49;;;;;;;9.77;6.53;;;5.80;85.30;;;;;;4991098;28;20058;-57
2021/01/23 12:43:14;;;;;;;12.10;6.60;;;5.90;85.60;;;;;;4990536;28;20046;-57